Time;durP1;ratioP1;P1;durP2;ratioP2;P2;SDS_P1;SDS_P2;PMS_P1;PMS_P2;Temp;Humidity;BMP_temperature;BMP_pressure;BME280_temperature;BME280_humidity;BME280_pressure;Samples;Min_cycle;Max_cycle;Signal;HPM_P1;HPM_P2
2021/12/25 08:51:25;;;;;;;15.07;4.40;;;7.40;99.90;;;;;;6234106;23;20056;-82
2021/12/25 08:54:11;;;;;;;30.80;9.85;;;7.30;99.90;;;;;;6229487;23;20016;-81
2021/12/25 08:59:44;;;;;;;3.00;1.33;;;7.60;99.90;;;;;;6198360;23;20020;-77
2021/12/25 09:02:41;;;;;;;3.60;1.20;;;7.70;99.90;;;;;;6191290;23;20095;-78
2021/12/25 09:05:10;;;;;;;3.05;1.27;;;7.30;99.90;;;;;;6219825;23;20086;-79
2021/12/25 09:07:39;;;;;;;4.13;1.25;;;7.60;99.90;;;;;;6221283;23;20123;-78
2021/12/25 09:10:09;;;;;;;2.03;0.55;;;7.70;99.90;;;;;;6214527;23;20660;-77
2021/12/25 09:12:42;;;;;;;2.70;0.43;;;7.70;99.90;;;;;;6213310;23;20055;-78
2021/12/25 09:15:12;;;;;;;1.40;0.30;;;7.70;99.90;;;;;;6214092;23;20059;-77
2021/12/25 09:17:42;;;;;;;1.55;0.45;;;7.50;99.90;;;;;;6214711;23;20016;-76
2021/12/25 09:20:12;;;;;;;1.30;0.40;;;7.40;99.90;;;;;;6213499;23;20405;-75
2021/12/25 09:22:41;;;;;;;1.48;0.40;;;7.60;99.90;;;;;;6215447;23;20032;-79
2021/12/25 09:25:10;;;;;;;3.80;0.67;;;7.60;99.90;;;;;;6194727;23;20029;-80
2021/12/25 09:27:42;;;;;;;1.23;0.32;;;7.70;99.90;;;;;;6200443;23;20104;-82
2021/12/25 09:30:12;;;;;;;1.35;0.40;;;7.70;99.90;;;;;;6229919;23;20027;-78
2021/12/25 09:32:40;;;;;;;3.10;0.50;;;7.30;99.90;;;;;;6188251;23;20395;-79
2021/12/25 09:35:09;;;;;;;1.42;0.40;;;7.20;99.90;;;;;;6216272;23;20016;-80
2021/12/25 09:37:38;;;;;;;1.70;0.27;;;7.20;99.90;;;;;;6218532;23;20088;-79
2021/12/25 09:40:09;;;;;;;1.20;0.40;;;7.30;99.90;;;;;;6219578;23;20156;-77
2021/12/25 09:42:42;;;;;;;1.27;0.50;;;7.30;99.90;;;;;;6220093;23;20104;-79
2021/12/25 09:45:12;;;;;;;1.45;0.30;;;7.20;99.90;;;;;;6215637;23;20072;-79
2021/12/25 09:47:42;;;;;;;2.10;0.30;;;7.00;99.90;;;;;;6217619;23;20025;-78
2021/12/25 09:50:11;;;;;;;1.43;0.43;;;6.90;99.90;;;;;;6216583;23;20100;-79
2021/12/25 09:52:42;;;;;;;2.15;0.40;;;6.90;99.90;;;;;;6218774;23;20019;-76
2021/12/25 09:55:12;;;;;;;1.45;0.30;;;7.00;99.90;;;;;;6224471;23;20028;-78
2021/12/25 09:57:43;;;;;;;1.48;0.20;;;6.90;99.90;;;;;;6219108;23;20427;-79
2021/12/25 10:00:14;;;;;;;1.27;0.30;;;6.90;99.90;;;;;;6200481;23;20406;-81
2021/12/25 10:02:45;;;;;;;1.23;0.33;;;7.00;99.90;;;;;;6233046;23;20021;-80
2021/12/25 10:05:14;;;;;;;1.42;0.30;;;;;;;;;;6237915;23;20013;-79
2021/12/25 10:16:37;;;;;;;1.30;0.30;;;;;;;;;;6245365;22;20009;-80
2021/12/25 15:00:36;;;;;;;2.05;0.60;;;4.70;99.90;;;;;;6283280;22;20008;-83
2021/12/25 15:19:44;;;;;;;2.10;0.80;;;4.70;99.90;;;;;;6231223;23;20023;-78
2021/12/25 15:22:21;;;;;;;2.25;0.85;;;4.60;99.90;;;;;;6211597;23;20059;-79
2021/12/25 15:25:04;;;;;;;2.08;0.82;;;4.60;99.90;;;;;;6240714;22;20034;-80
2021/12/25 15:28:10;;;;;;;5.97;0.80;;;4.80;99.90;;;;;;6267104;22;20023;-80
2021/12/25 15:31:40;;;;;;;2.13;0.50;;;4.80;99.90;;;;;;6241279;22;20019;-81
2021/12/25 15:34:21;;;;;;;1.67;0.50;;;4.60;99.90;;;;;;6254524;22;20033;-80
2021/12/25 15:37:44;;;;;;;2.08;0.60;;;4.50;99.90;;;;;;6266029;22;20011;-80
2021/12/25 15:40:25;;;;;;;3.33;1.05;;;4.50;99.90;;;;;;6267972;22;20039;-78
2021/12/25 15:43:03;;;;;;;1.97;0.67;;;4.20;99.90;;;;;;6244295;22;20008;-79
2021/12/25 15:49:06;;;;;;;4.00;0.93;;;4.30;99.90;;;;;;6269120;22;20026;-80
2021/12/25 15:51:39;;;;;;;1.67;0.40;;;4.30;99.90;;;;;;6265310;22;20055;-77
2021/12/25 15:54:31;;;;;;;1.50;0.45;;;4.30;99.90;;;;;;6267148;22;20231;-81
2021/12/25 15:58:32;;;;;;;2.57;1.17;;;4.40;99.90;;;;;;6245697;22;20007;-79
2021/12/25 16:13:24;;;;;;;2.23;0.70;;;4.30;99.90;;;;;;6247075;22;20022;-77
2021/12/25 16:20:42;;;;;;;3.70;0.80;;;;;;;;;;6188298;23;20021;-79
2021/12/25 16:24:10;;;;;;;2.00;0.82;;;;;;;;;;6160231;23;20028;-83
2021/12/25 16:37:05;;;;;;;2.10;0.40;;;;;;;;;;6296441;22;20015;-82
2021/12/25 16:39:56;;;;;;;1.80;0.47;;;;;;;;;;6241098;22;20024;-80
2021/12/25 16:42:36;;;;;;;2.63;0.75;;;;;;;;;;6268300;22;20027;-81
2021/12/25 16:45:27;;;;;;;1.60;0.53;;;;;;;;;;6292524;22;20065;-81
2021/12/25 16:48:03;;;;;;;2.78;0.88;;;;;;;;;;6267127;22;20019;-81
2021/12/25 16:50:37;;;;;;;4.20;0.85;;;;;;;;;;6299430;22;20068;-80
2021/12/25 16:53:35;;;;;;;1.45;0.52;;;;;;;;;;6251136;22;20018;-81
2021/12/25 16:56:06;;;;;;;2.90;1.00;;;;;;;;;;6262499;22;20016;-79
2021/12/25 16:58:50;;;;;;;1.70;0.80;;;;;;;;;;6273801;22;20024;-78
2021/12/25 17:01:24;;;;;;;1.48;0.50;;;;;;;;;;6249670;22;20457;-78
2021/12/25 17:03:53;;;;;;;1.98;0.60;;;;;;;;;;6224345;22;20125;-78
2021/12/25 17:06:25;;;;;;;1.73;0.73;;;;;;;;;;6249906;22;20111;-79
2021/12/25 17:08:54;;;;;;;1.85;0.40;;;;;;;;;;6249444;22;20022;-79
2021/12/25 17:11:32;;;;;;;2.83;0.80;;;;;;;;;;6251049;22;20079;-80
2021/12/25 17:14:26;;;;;;;1.45;0.60;;;;;;;;;;6283399;22;20020;-79
2021/12/25 17:16:57;;;;;;;3.38;0.80;;;;;;;;;;6224357;22;20019;-78
2021/12/25 17:19:26;;;;;;;2.08;0.80;;;;;;;;;;6248529;22;20027;-79
2021/12/25 17:21:55;;;;;;;2.00;0.70;;;4.20;99.90;;;;;;6277109;22;20018;-79
2021/12/25 17:24:23;;;;;;;1.43;0.47;;;3.50;99.90;;;;;;6278713;22;20023;-79
2021/12/25 17:26:53;;;;;;;3.38;0.98;;;3.70;99.90;;;;;;6249623;22;20385;-79
2021/12/25 17:29:22;;;;;;;1.50;0.60;;;3.40;99.90;;;;;;6225077;22;20023;-78
2021/12/25 17:31:51;;;;;;;1.98;0.52;;;3.30;99.90;;;;;;6249336;22;20020;-78
2021/12/25 17:34:20;;;;;;;1.95;0.80;;;3.40;99.90;;;;;;6249201;22;20024;-77
2021/12/25 17:36:49;;;;;;;1.43;0.43;;;3.50;99.90;;;;;;6275946;22;20024;-78
2021/12/25 17:39:19;;;;;;;2.80;1.00;;;3.60;99.90;;;;;;6249517;22;20023;-77
2021/12/25 17:41:50;;;;;;;2.83;0.85;;;3.60;99.90;;;;;;6249258;22;20028;-77
2021/12/25 17:44:23;;;;;;;2.40;1.35;;;3.50;99.90;;;;;;6223936;22;20106;-77
2021/12/25 17:46:52;;;;;;;2.97;1.05;;;3.50;99.90;;;;;;6248675;22;20035;-77
2021/12/25 17:49:22;;;;;;;2.43;0.80;;;3.30;99.90;;;;;;6276971;22;20129;-77
2021/12/25 17:52:10;;;;;;;2.88;0.75;;;3.30;99.90;;;;;;6249272;22;20019;-78
2021/12/25 17:54:38;;;;;;;3.35;1.10;;;3.50;99.90;;;;;;6276601;22;20489;-76
2021/12/25 17:57:14;;;;;;;3.20;1.02;;;3.60;99.90;;;;;;6248807;22;20091;-77
2021/12/25 17:59:44;;;;;;;2.65;0.88;;;3.60;99.90;;;;;;6275014;22;20026;-77
2021/12/25 18:02:13;;;;;;;3.67;1.27;;;3.60;99.90;;;;;;6248640;22;20020;-79
2021/12/25 18:04:42;;;;;;;3.35;1.30;;;3.50;99.90;;;;;;6251669;22;20020;-78
2021/12/25 18:07:11;;;;;;;2.70;0.88;;;3.50;99.90;;;;;;6258150;22;20035;-80
2021/12/25 18:10:31;;;;;;;2.83;0.88;;;3.70;99.90;;;;;;6284966;22;20031;-78
2021/12/25 18:13:00;;;;;;;2.17;0.90;;;3.70;99.90;;;;;;6248264;22;20027;-78
2021/12/25 18:15:31;;;;;;;1.70;0.73;;;3.50;99.90;;;;;;6247374;22;20443;-77
2021/12/25 18:18:00;;;;;;;3.53;1.75;;;3.50;99.90;;;;;;6246192;22;20050;-77
2021/12/25 18:20:56;;;;;;;1.48;0.60;;;3.50;99.90;;;;;;6245678;22;20122;-77
2021/12/25 18:23:25;;;;;;;3.20;0.98;;;3.60;99.90;;;;;;6275648;22;20019;-76
2021/12/25 18:25:55;;;;;;;4.57;1.00;;;3.50;99.90;;;;;;6223025;22;20020;-77
2021/12/25 18:28:29;;;;;;;3.43;1.30;;;3.50;99.90;;;;;;6248457;22;20011;-76
2021/12/25 18:31:01;;;;;;;3.90;1.15;;;3.50;99.90;;;;;;6274856;22;20034;-77
2021/12/25 18:33:54;;;;;;;3.13;1.13;;;3.50;99.90;;;;;;6248159;22;20386;-78
2021/12/25 18:36:23;;;;;;;3.67;1.40;;;3.40;99.90;;;;;;6221035;22;20342;-78
2021/12/25 18:38:53;;;;;;;3.60;1.20;;;3.50;99.90;;;;;;6247399;22;20019;-77
2021/12/25 18:41:30;;;;;;;3.37;1.10;;;3.40;99.90;;;;;;6276449;22;20015;-77
2021/12/25 18:44:02;;;;;;;2.33;0.80;;;3.50;99.90;;;;;;6251165;22;20055;-77
2021/12/25 18:46:35;;;;;;;2.67;0.93;;;3.60;99.90;;;;;;6227510;22;20083;-77
2021/12/25 18:49:03;;;;;;;2.45;0.75;;;3.70;99.90;;;;;;6251773;22;20024;-77
2021/12/25 18:51:33;;;;;;;3.25;0.93;;;3.70;99.90;;;;;;6252697;22;20026;-77
2021/12/25 18:54:01;;;;;;;3.53;1.10;;;3.70;99.90;;;;;;6277864;22;20019;-77
2021/12/25 18:56:30;;;;;;;2.28;0.82;;;3.50;99.90;;;;;;6248626;22;20024;-77
2021/12/25 18:58:58;;;;;;;1.80;0.63;;;3.40;99.90;;;;;;6223412;22;20041;-77
2021/12/25 19:01:27;;;;;;;2.92;1.00;;;3.50;99.90;;;;;;6248226;22;20019;-77
2021/12/25 19:03:57;;;;;;;1.90;0.80;;;3.50;99.90;;;;;;6274454;22;20406;-77
2021/12/25 19:06:25;;;;;;;2.13;1.00;;;3.40;99.90;;;;;;6278135;22;20075;-78
2021/12/25 19:08:58;;;;;;;2.85;0.93;;;3.50;99.90;;;;;;6247472;22;20392;-77
2021/12/25 19:11:52;;;;;;;2.25;0.80;;;3.50;99.90;;;;;;6248166;22;20016;-77
2021/12/25 19:14:24;;;;;;;4.13;0.82;;;3.40;99.90;;;;;;6222607;22;20402;-77
2021/12/25 19:16:53;;;;;;;2.38;1.20;;;3.40;99.90;;;;;;6222625;22;20026;-76
2021/12/25 19:19:24;;;;;;;3.80;1.57;;;3.30;99.90;;;;;;6222690;22;20015;-77
2021/12/25 19:21:54;;;;;;;1.98;0.75;;;3.40;99.90;;;;;;6247213;22;20031;-77
2021/12/25 19:24:23;;;;;;;2.10;0.80;;;3.40;99.90;;;;;;6247864;22;20012;-77
2021/12/25 19:26:51;;;;;;;2.80;1.05;;;3.40;99.90;;;;;;6247678;22;20334;-79
2021/12/25 19:29:20;;;;;;;3.10;1.23;;;3.20;99.90;;;;;;6247521;22;20019;-77
2021/12/25 19:31:49;;;;;;;3.70;1.83;;;3.30;99.90;;;;;;6247078;22;20054;-77
2021/12/25 19:34:18;;;;;;;2.47;0.90;;;3.40;99.90;;;;;;6247081;22;20031;-77
2021/12/25 19:36:49;;;;;;;3.38;1.13;;;3.40;99.90;;;;;;6249969;22;20028;-78
2021/12/25 19:39:17;;;;;;;7.22;1.33;;;3.50;99.90;;;;;;6221649;22;20030;-78
2021/12/25 19:41:47;;;;;;;2.33;1.02;;;3.40;99.90;;;;;;6246533;22;20027;-77
2021/12/25 19:44:17;;;;;;;3.23;1.20;;;3.50;99.90;;;;;;6246819;22;20016;-77
2021/12/25 19:46:46;;;;;;;5.72;1.50;;;3.60;99.90;;;;;;6247561;22;20055;-78
2021/12/25 19:49:15;;;;;;;5.15;0.80;;;3.60;99.90;;;;;;6247872;22;20020;-78
2021/12/25 19:51:43;;;;;;;3.78;1.20;;;3.70;99.90;;;;;;6247498;22;20034;-78
2021/12/25 19:54:13;;;;;;;2.25;0.77;;;3.80;99.90;;;;;;6247900;22;20028;-78
2021/12/25 19:56:42;;;;;;;3.10;1.30;;;3.80;99.90;;;;;;6222982;22;20031;-78
2021/12/25 19:59:12;;;;;;;3.50;1.27;;;3.70;99.90;;;;;;6250054;22;20024;-78
2021/12/25 20:02:02;;;;;;;2.45;0.82;;;3.70;99.90;;;;;;6222592;22;20019;-77
2021/12/25 20:04:52;;;;;;;2.22;0.70;;;3.80;99.90;;;;;;6247935;22;20043;-77
2021/12/25 20:07:22;;;;;;;2.80;1.33;;;3.80;99.90;;;;;;6249155;22;20383;-78
2021/12/25 20:09:52;;;;;;;1.83;0.73;;;3.70;99.90;;;;;;6223961;22;20107;-78
2021/12/25 20:12:21;;;;;;;3.45;1.35;;;3.70;99.90;;;;;;6249403;22;20081;-78
2021/12/25 20:14:50;;;;;;;3.20;0.90;;;3.60;99.90;;;;;;6223368;22;20066;-78
2021/12/25 20:21:24;;;;;;;3.00;1.15;;;3.50;99.90;;;;;;6247195;22;20320;-78
2021/12/25 20:23:57;;;;;;;3.50;1.00;;;3.50;99.90;;;;;;6248937;22;20032;-77
2021/12/25 20:26:34;;;;;;;3.05;1.38;;;3.50;99.90;;;;;;6248675;22;20051;-77
2021/12/25 20:29:04;;;;;;;3.95;1.35;;;3.60;99.90;;;;;;6248564;22;20350;-77
2021/12/25 20:31:33;;;;;;;6.57;1.25;;;3.60;99.90;;;;;;6248335;22;20435;-78
2021/12/25 20:34:02;;;;;;;2.90;1.23;;;3.50;99.90;;;;;;6248623;22;20020;-77
2021/12/25 20:36:30;;;;;;;3.23;1.10;;;3.60;99.90;;;;;;6248698;22;20069;-77
2021/12/25 20:38:59;;;;;;;1.90;0.80;;;3.70;99.90;;;;;;6248484;22;20023;-77
2021/12/25 20:41:28;;;;;;;2.38;0.75;;;3.70;99.90;;;;;;6248565;22;20027;-76
2021/12/25 20:46:47;;;;;;;4.22;1.83;;;3.70;99.90;;;;;;6275473;22;20110;-78
2021/12/25 20:49:16;;;;;;;63.23;27.20;;;3.60;99.90;;;;;;6248938;22;20041;-77
2021/12/25 20:51:48;;;;;;;9.02;5.15;;;3.60;99.90;;;;;;6223683;22;20026;-78
2021/12/25 20:54:17;;;;;;;4.30;1.92;;;3.70;99.90;;;;;;6223969;22;20016;-77
2021/12/25 20:56:46;;;;;;;3.45;1.55;;;3.70;99.90;;;;;;6248208;22;20092;-77
2021/12/25 20:59:16;;;;;;;2.72;1.20;;;3.60;99.90;;;;;;6247721;22;20079;-77
2021/12/25 21:01:45;;;;;;;1.63;0.67;;;3.70;99.90;;;;;;6247410;22;20026;-77
2021/12/25 21:04:15;;;;;;;2.28;0.80;;;3.60;99.90;;;;;;6248497;22;20026;-77
2021/12/25 21:06:43;;;;;;;2.10;0.82;;;3.40;99.90;;;;;;6275913;22;20026;-77
2021/12/25 21:09:15;;;;;;;2.95;0.82;;;3.40;99.90;;;;;;6260260;22;20044;-77
2021/12/25 21:11:47;;;;;;;2.80;1.10;;;3.10;99.90;;;;;;6248657;22;20103;-77
2021/12/25 21:14:37;;;;;;;2.97;0.90;;;3.20;99.90;;;;;;6248683;22;20023;-77
2021/12/25 21:17:06;;;;;;;3.72;1.48;;;3.30;99.90;;;;;;6248783;22;20023;-77
2021/12/25 21:19:35;;;;;;;3.45;1.30;;;3.30;99.90;;;;;;6275057;22;20324;-77
2021/12/25 21:22:05;;;;;;;2.92;1.23;;;3.40;99.90;;;;;;6248666;22;20030;-77
2021/12/25 21:24:34;;;;;;;3.38;1.55;;;3.50;99.90;;;;;;6248938;22;20024;-76
2021/12/25 21:27:03;;;;;;;4.43;1.63;;;3.50;99.90;;;;;;6275867;22;20027;-77
2021/12/25 21:29:33;;;;;;;3.70;1.40;;;3.40;99.90;;;;;;6248908;22;20091;-77
2021/12/25 21:32:04;;;;;;;3.70;1.52;;;3.40;99.90;;;;;;6222356;22;20089;-77
2021/12/25 21:34:33;;;;;;;2.67;1.17;;;3.40;99.90;;;;;;6247877;22;20350;-76
2021/12/25 21:37:26;;;;;;;4.15;1.35;;;3.40;99.90;;;;;;6248029;22;20024;-76
2021/12/25 21:39:55;;;;;;;2.80;1.07;;;3.50;99.90;;;;;;6276017;22;20016;-76
2021/12/25 21:42:29;;;;;;;4.18;1.65;;;3.50;99.90;;;;;;6276336;22;20023;-77
2021/12/25 21:44:59;;;;;;;5.30;1.20;;;3.40;99.90;;;;;;6249014;22;20015;-77
2021/12/25 21:47:29;;;;;;;4.18;1.27;;;3.40;99.90;;;;;;6248833;22;20024;-77
2021/12/25 21:49:57;;;;;;;3.08;1.02;;;3.30;99.90;;;;;;6222572;22;20043;-76
2021/12/25 21:52:25;;;;;;;3.50;1.10;;;3.40;99.90;;;;;;6248948;22;20015;-76
2021/12/25 21:54:53;;;;;;;4.82;1.50;;;3.40;99.90;;;;;;6248880;22;20023;-77
2021/12/25 21:57:21;;;;;;;3.05;0.80;;;3.50;99.90;;;;;;6249294;22;20019;-77
2021/12/25 21:59:50;;;;;;;2.97;1.13;;;3.40;99.90;;;;;;6249033;22;20023;-78
2021/12/25 22:02:24;;;;;;;4.55;1.30;;;3.50;99.90;;;;;;6249833;22;20031;-76
2021/12/25 22:04:57;;;;;;;4.43;1.67;;;3.60;99.90;;;;;;6248586;22;20339;-77
2021/12/25 22:07:28;;;;;;;3.15;1.30;;;3.50;99.90;;;;;;6248326;22;20019;-77
2021/12/25 22:09:59;;;;;;;5.43;1.85;;;3.50;99.90;;;;;;6246653;22;20038;-76
2021/12/25 22:12:29;;;;;;;3.45;1.83;;;3.60;99.90;;;;;;6246942;22;20050;-77
2021/12/25 22:14:58;;;;;;;4.32;1.65;;;3.50;99.90;;;;;;6222803;22;20130;-77
2021/12/25 22:17:30;;;;;;;6.63;1.67;;;3.60;99.90;;;;;;6247567;22;20034;-77
2021/12/25 22:20:00;;;;;;;3.38;1.38;;;3.60;99.90;;;;;;6248008;22;20024;-76
2021/12/25 22:22:54;;;;;;;2.83;1.20;;;3.50;99.90;;;;;;6247313;22;20042;-77
2021/12/25 22:25:24;;;;;;;3.65;1.80;;;3.50;99.90;;;;;;6247409;22;20081;-77
2021/12/25 22:27:53;;;;;;;2.53;0.88;;;3.60;99.90;;;;;;6248256;22;20094;-77
2021/12/25 22:30:46;;;;;;;2.47;1.10;;;3.50;99.90;;;;;;6246918;22;20020;-78
2021/12/25 22:33:17;;;;;;;2.30;1.17;;;3.50;99.90;;;;;;6247867;22;20027;-77
2021/12/25 22:35:48;;;;;;;4.47;1.58;;;3.40;99.90;;;;;;6274046;22;20015;-77
2021/12/25 22:38:19;;;;;;;3.45;2.15;;;3.50;99.90;;;;;;6276355;22;20439;-78
2021/12/25 22:40:49;;;;;;;3.03;1.10;;;3.50;99.90;;;;;;6252065;22;20370;-77
2021/12/25 22:43:21;;;;;;;4.33;1.67;;;3.50;99.90;;;;;;6276037;22;20023;-78
2021/12/25 22:45:50;;;;;;;2.50;1.05;;;3.60;99.90;;;;;;6275015;22;20020;-78
2021/12/25 22:48:25;;;;;;;5.70;2.05;;;3.60;99.90;;;;;;6247930;22;20493;-78
2021/12/25 22:50:57;;;;;;;13.00;5.78;;;3.60;99.90;;;;;;6247734;22;20015;-78
2021/12/25 22:53:27;;;;;;;11.15;4.93;;;3.50;99.90;;;;;;6247855;22;20034;-78
2021/12/25 22:55:57;;;;;;;5.47;2.63;;;3.40;99.90;;;;;;6247895;22;20019;-78
2021/12/25 22:58:27;;;;;;;6.30;2.85;;;3.20;99.90;;;;;;6247979;22;20031;-78
2021/12/25 23:00:59;;;;;;;10.00;3.15;;;3.30;99.90;;;;;;6248063;22;20098;-78
2021/12/25 23:03:31;;;;;;;5.38;2.03;;;3.30;99.90;;;;;;6248458;22;20385;-79
2021/12/25 23:06:04;;;;;;;4.22;1.38;;;3.30;99.90;;;;;;6249469;22;20346;-78
2021/12/25 23:08:39;;;;;;;5.33;1.83;;;3.20;99.90;;;;;;6249461;22;20034;-77
2021/12/25 23:11:09;;;;;;;2.78;1.45;;;3.20;99.90;;;;;;6276120;22;20031;-78
2021/12/25 23:13:38;;;;;;;5.10;1.88;;;3.20;99.90;;;;;;6249173;22;20306;-77
2021/12/25 23:16:08;;;;;;;4.07;1.88;;;;;;;;;;6248190;22;20052;-78
2021/12/25 23:18:37;;;;;;;3.60;1.92;;;;;;;;;;6247616;22;20030;-78
2021/12/25 23:21:08;;;;;;;3.50;1.57;;;;;;;;;;6247565;22;20026;-78
2021/12/25 23:23:38;;;;;;;4.68;1.85;;;;;;;;;;6275323;22;20055;-77
2021/12/25 23:26:07;;;;;;;3.92;2.00;;;;;;;;;;6247404;22;20015;-78
2021/12/25 23:28:37;;;;;;;3.50;1.73;;;;;;;;;;6274955;22;20071;-77
2021/12/25 23:31:11;;;;;;;6.40;1.98;;;;;;;;;;6246821;22;20023;-78
2021/12/25 23:33:42;;;;;;;3.40;1.57;;;;;;;;;;6247440;22;20030;-77
2021/12/25 23:36:17;;;;;;;4.32;1.80;;;;;;;;;;6274805;22;20046;-77
2021/12/25 23:38:49;;;;;;;4.20;2.05;;;;;;;;;;6221774;22;20019;-78
2021/12/25 23:41:20;;;;;;;4.97;1.90;;;;;;;;;;6274529;22;20028;-78
2021/12/25 23:43:52;;;;;;;3.47;1.85;;;;;;;;;;6247252;22;20016;-78
2021/12/25 23:46:21;;;;;;;5.40;2.17;;;;;;;;;;6222149;22;20024;-77
2021/12/25 23:48:50;;;;;;;6.05;2.08;;;;;;;;;;6247162;22;20449;-77
2021/12/25 23:51:22;;;;;;;3.83;1.58;;;;;;;;;;6247456;22;20023;-78
2021/12/25 23:53:50;;;;;;;4.75;2.05;;;;;;;;;;6247092;22;20099;-78
2021/12/25 23:56:19;;;;;;;2.70;1.55;;;;;;;;;;6247088;22;20038;-78
2021/12/25 23:58:49;;;;;;;5.17;2.33;;;;;;;;;;6246956;22;20047;-78
